sensor_id;sensor_type;location;lat;lon;timestamp;P1;durP1;ratioP1;P2;durP2;ratioP2
33826;SDS011;20128;45.582;5.298;2023-04-25T00:01:14;17.35;;;4.97;;
33826;SDS011;20128;45.582;5.298;2023-04-25T00:03:40;14.70;;;4.93;;
33826;SDS011;20128;45.582;5.298;2023-04-25T00:06:06;30.08;;;10.60;;
33826;SDS011;20128;45.582;5.298;2023-04-25T00:08:32;24.00;;;8.15;;
33826;SDS011;20128;45.582;5.298;2023-04-25T00:10:58;23.08;;;7.28;;
33826;SDS011;20128;45.582;5.298;2023-04-25T00:13:24;14.75;;;6.10;;
33826;SDS011;20128;45.582;5.298;2023-04-25T00:15:51;24.98;;;5.93;;
33826;SDS011;20128;45.582;5.298;2023-04-25T00:18:18;15.85;;;4.72;;
33826;SDS011;20128;45.582;5.298;2023-04-25T00:20:45;9.38;;;4.35;;
33826;SDS011;20128;45.582;5.298;2023-04-25T00:23:15;11.35;;;5.40;;
33826;SDS011;20128;45.582;5.298;2023-04-25T00:25:45;17.77;;;6.53;;
33826;SDS011;20128;45.582;5.298;2023-04-25T00:28:11;12.50;;;5.28;;
33826;SDS011;20128;45.582;5.298;2023-04-25T00:30:38;14.07;;;5.70;;
33826;SDS011;20128;45.582;5.298;2023-04-25T00:33:04;16.48;;;4.25;;
33826;SDS011;20128;45.582;5.298;2023-04-25T00:35:30;21.88;;;5.45;;
33826;SDS011;20128;45.582;5.298;2023-04-25T00:37:56;11.07;;;4.47;;
33826;SDS011;20128;45.582;5.298;2023-04-25T00:40:22;8.88;;;3.92;;
33826;SDS011;20128;45.582;5.298;2023-04-25T00:42:47;11.43;;;4.18;;
33826;SDS011;20128;45.582;5.298;2023-04-25T00:45:14;13.55;;;3.95;;
33826;SDS011;20128;45.582;5.298;2023-04-25T00:47:41;10.73;;;3.90;;
33826;SDS011;20128;45.582;5.298;2023-04-25T00:50:07;8.88;;;3.35;;
33826;SDS011;20128;45.582;5.298;2023-04-25T00:52:33;5.35;;;3.05;;
33826;SDS011;20128;45.582;5.298;2023-04-25T00:55:00;6.22;;;2.67;;
33826;SDS011;20128;45.582;5.298;2023-04-25T00:57:26;7.90;;;3.10;;
33826;SDS011;20128;45.582;5.298;2023-04-25T00:59:52;10.20;;;3.75;;
33826;SDS011;20128;45.582;5.298;2023-04-25T01:02:19;8.32;;;3.85;;
33826;SDS011;20128;45.582;5.298;2023-04-25T01:04:45;7.82;;;3.67;;
33826;SDS011;20128;45.582;5.298;2023-04-25T01:07:12;5.53;;;2.78;;
33826;SDS011;20128;45.582;5.298;2023-04-25T01:09:38;7.70;;;3.22;;
33826;SDS011;20128;45.582;5.298;2023-04-25T01:12:04;8.90;;;3.70;;
33826;SDS011;20128;45.582;5.298;2023-04-25T01:14:30;11.82;;;3.90;;
33826;SDS011;20128;45.582;5.298;2023-04-25T01:16:56;10.05;;;3.50;;
33826;SDS011;20128;45.582;5.298;2023-04-25T01:19:22;8.13;;;3.58;;
33826;SDS011;20128;45.582;5.298;2023-04-25T01:21:49;6.78;;;2.83;;
33826;SDS011;20128;45.582;5.298;2023-04-25T01:24:15;9.07;;;3.67;;
33826;SDS011;20128;45.582;5.298;2023-04-25T01:26:41;9.25;;;3.53;;
33826;SDS011;20128;45.582;5.298;2023-04-25T01:29:15;9.23;;;3.67;;
33826;SDS011;20128;45.582;5.298;2023-04-25T01:31:45;9.93;;;3.75;;
33826;SDS011;20128;45.582;5.298;2023-04-25T01:34:11;13.00;;;3.95;;
33826;SDS011;20128;45.582;5.298;2023-04-25T01:36:37;7.25;;;3.53;;
33826;SDS011;20128;45.582;5.298;2023-04-25T01:39:03;12.80;;;4.32;;
33826;SDS011;20128;45.582;5.298;2023-04-25T01:41:29;22.08;;;4.25;;
33826;SDS011;20128;45.582;5.298;2023-04-25T01:43:55;18.83;;;3.70;;
33826;SDS011;20128;45.582;5.298;2023-04-25T01:46:21;13.13;;;3.50;;
33826;SDS011;20128;45.582;5.298;2023-04-25T01:48:47;7.45;;;3.10;;
33826;SDS011;20128;45.582;5.298;2023-04-25T01:51:13;8.13;;;3.20;;
33826;SDS011;20128;45.582;5.298;2023-04-25T01:53:40;16.02;;;3.58;;
33826;SDS011;20128;45.582;5.298;2023-04-25T01:56:06;11.32;;;3.90;;
33826;SDS011;20128;45.582;5.298;2023-04-25T01:58:32;10.68;;;3.90;;
33826;SDS011;20128;45.582;5.298;2023-04-25T02:00:57;14.73;;;3.78;;
33826;SDS011;20128;45.582;5.298;2023-04-25T02:03:23;11.18;;;3.40;;
33826;SDS011;20128;45.582;5.298;2023-04-25T02:05:49;17.38;;;4.72;;
33826;SDS011;20128;45.582;5.298;2023-04-25T02:08:15;12.10;;;4.57;;
33826;SDS011;20128;45.582;5.298;2023-04-25T02:10:42;10.52;;;3.63;;
33826;SDS011;20128;45.582;5.298;2023-04-25T02:13:07;11.35;;;3.53;;
33826;SDS011;20128;45.582;5.298;2023-04-25T02:15:33;11.55;;;4.13;;
33826;SDS011;20128;45.582;5.298;2023-04-25T02:17:59;18.80;;;6.10;;
33826;SDS011;20128;45.582;5.298;2023-04-25T02:20:28;12.68;;;4.18;;
33826;SDS011;20128;45.582;5.298;2023-04-25T02:22:55;11.35;;;3.83;;
33826;SDS011;20128;45.582;5.298;2023-04-25T02:25:21;9.77;;;4.40;;
33826;SDS011;20128;45.582;5.298;2023-04-25T02:27:47;12.43;;;4.47;;
33826;SDS011;20128;45.582;5.298;2023-04-25T02:30:13;13.90;;;4.20;;
33826;SDS011;20128;45.582;5.298;2023-04-25T02:32:39;9.68;;;3.80;;
33826;SDS011;20128;45.582;5.298;2023-04-25T02:35:06;9.80;;;3.80;;
33826;SDS011;20128;45.582;5.298;2023-04-25T02:37:37;12.25;;;3.72;;
33826;SDS011;20128;45.582;5.298;2023-04-25T02:40:03;8.95;;;3.63;;
33826;SDS011;20128;45.582;5.298;2023-04-25T02:42:30;8.07;;;3.40;;
33826;SDS011;20128;45.582;5.298;2023-04-25T02:44:56;7.15;;;3.03;;
33826;SDS011;20128;45.582;5.298;2023-04-25T02:47:22;8.68;;;3.45;;
33826;SDS011;20128;45.582;5.298;2023-04-25T02:49:47;9.32;;;3.45;;
33826;SDS011;20128;45.582;5.298;2023-04-25T02:52:13;12.90;;;4.38;;
33826;SDS011;20128;45.582;5.298;2023-04-25T02:54:39;9.68;;;3.75;;
33826;SDS011;20128;45.582;5.298;2023-04-25T02:57:06;6.60;;;3.42;;
33826;SDS011;20128;45.582;5.298;2023-04-25T02:59:32;9.95;;;4.07;;
33826;SDS011;20128;45.582;5.298;2023-04-25T03:01:58;13.98;;;4.60;;
33826;SDS011;20128;45.582;5.298;2023-04-25T03:04:23;11.93;;;3.70;;
33826;SDS011;20128;45.582;5.298;2023-04-25T03:06:50;8.88;;;3.75;;
33826;SDS011;20128;45.582;5.298;2023-04-25T03:09:16;16.90;;;4.03;;
33826;SDS011;20128;45.582;5.298;2023-04-25T03:11:42;10.27;;;3.83;;
33826;SDS011;20128;45.582;5.298;2023-04-25T03:14:08;9.52;;;3.83;;
33826;SDS011;20128;45.582;5.298;2023-04-25T03:16:34;9.88;;;3.33;;
33826;SDS011;20128;45.582;5.298;2023-04-25T03:19:00;14.02;;;4.05;;
33826;SDS011;20128;45.582;5.298;2023-04-25T03:21:26;5.93;;;3.20;;
33826;SDS011;20128;45.582;5.298;2023-04-25T03:23:52;7.55;;;3.53;;
33826;SDS011;20128;45.582;5.298;2023-04-25T03:26:18;11.55;;;3.13;;
33826;SDS011;20128;45.582;5.298;2023-04-25T03:28:43;10.68;;;3.35;;
33826;SDS011;20128;45.582;5.298;2023-04-25T03:31:09;5.75;;;3.13;;
33826;SDS011;20128;45.582;5.298;2023-04-25T03:33:35;9.02;;;3.72;;
33826;SDS011;20128;45.582;5.298;2023-04-25T03:36:00;9.63;;;3.47;;
33826;SDS011;20128;45.582;5.298;2023-04-25T03:38:26;6.45;;;3.30;;
33826;SDS011;20128;45.582;5.298;2023-04-25T03:40:52;11.52;;;3.45;;
33826;SDS011;20128;45.582;5.298;2023-04-25T03:43:18;10.55;;;3.08;;
33826;SDS011;20128;45.582;5.298;2023-04-25T03:45:43;10.98;;;3.88;;
33826;SDS011;20128;45.582;5.298;2023-04-25T03:48:09;11.73;;;4.03;;
33826;SDS011;20128;45.582;5.298;2023-04-25T03:50:36;9.27;;;3.83;;
33826;SDS011;20128;45.582;5.298;2023-04-25T03:53:02;10.90;;;3.78;;
33826;SDS011;20128;45.582;5.298;2023-04-25T03:55:29;7.60;;;3.00;;
33826;SDS011;20128;45.582;5.298;2023-04-25T03:57:55;9.13;;;3.00;;
33826;SDS011;20128;45.582;5.298;2023-04-25T04:00:23;8.02;;;3.55;;
33826;SDS011;20128;45.582;5.298;2023-04-25T04:02:49;10.82;;;3.30;;
33826;SDS011;20128;45.582;5.298;2023-04-25T04:05:14;10.48;;;3.47;;
33826;SDS011;20128;45.582;5.298;2023-04-25T04:07:40;7.97;;;3.05;;
33826;SDS011;20128;45.582;5.298;2023-04-25T04:10:07;8.48;;;3.38;;
33826;SDS011;20128;45.582;5.298;2023-04-25T04:12:36;7.10;;;3.08;;
33826;SDS011;20128;45.582;5.298;2023-04-25T04:15:02;10.57;;;3.70;;
33826;SDS011;20128;45.582;5.298;2023-04-25T04:17:29;11.43;;;3.05;;
33826;SDS011;20128;45.582;5.298;2023-04-25T04:19:55;7.13;;;3.28;;
33826;SDS011;20128;45.582;5.298;2023-04-25T04:22:21;13.15;;;3.30;;
33826;SDS011;20128;45.582;5.298;2023-04-25T04:24:47;7.32;;;3.33;;
33826;SDS011;20128;45.582;5.298;2023-04-25T04:27:14;7.88;;;3.42;;
33826;SDS011;20128;45.582;5.298;2023-04-25T04:29:42;21.27;;;3.33;;
33826;SDS011;20128;45.582;5.298;2023-04-25T04:32:08;7.88;;;3.08;;
33826;SDS011;20128;45.582;5.298;2023-04-25T04:34:34;9.95;;;3.97;;
33826;SDS011;20128;45.582;5.298;2023-04-25T04:37:00;16.90;;;3.63;;
33826;SDS011;20128;45.582;5.298;2023-04-25T04:39:26;10.73;;;3.00;;
33826;SDS011;20128;45.582;5.298;2023-04-25T04:41:52;7.95;;;2.72;;
33826;SDS011;20128;45.582;5.298;2023-04-25T04:44:18;7.28;;;3.13;;
33826;SDS011;20128;45.582;5.298;2023-04-25T04:46:44;9.35;;;2.88;;
33826;SDS011;20128;45.582;5.298;2023-04-25T04:49:11;6.63;;;2.90;;
33826;SDS011;20128;45.582;5.298;2023-04-25T04:51:38;10.30;;;3.60;;
33826;SDS011;20128;45.582;5.298;2023-04-25T04:54:05;16.55;;;3.97;;
33826;SDS011;20128;45.582;5.298;2023-04-25T04:56:31;8.02;;;2.70;;
33826;SDS011;20128;45.582;5.298;2023-04-25T04:58:58;15.80;;;3.33;;
33826;SDS011;20128;45.582;5.298;2023-04-25T05:01:25;8.38;;;2.97;;
33826;SDS011;20128;45.582;5.298;2023-04-25T05:03:51;21.67;;;5.22;;
33826;SDS011;20128;45.582;5.298;2023-04-25T05:06:20;13.65;;;4.18;;
33826;SDS011;20128;45.582;5.298;2023-04-25T05:08:46;22.08;;;5.97;;
33826;SDS011;20128;45.582;5.298;2023-04-25T05:11:11;19.58;;;5.43;;
33826;SDS011;20128;45.582;5.298;2023-04-25T05:13:37;13.93;;;4.15;;
33826;SDS011;20128;45.582;5.298;2023-04-25T05:16:03;23.48;;;5.95;;
33826;SDS011;20128;45.582;5.298;2023-04-25T05:18:29;20.58;;;7.07;;
33826;SDS011;20128;45.582;5.298;2023-04-25T05:20:55;27.27;;;8.80;;
33826;SDS011;20128;45.582;5.298;2023-04-25T05:23:20;23.38;;;7.57;;
33826;SDS011;20128;45.582;5.298;2023-04-25T05:25:46;25.95;;;6.93;;
33826;SDS011;20128;45.582;5.298;2023-04-25T05:28:12;13.93;;;5.60;;
33826;SDS011;20128;45.582;5.298;2023-04-25T05:30:38;12.35;;;4.70;;
33826;SDS011;20128;45.582;5.298;2023-04-25T05:33:04;12.80;;;4.57;;
33826;SDS011;20128;45.582;5.298;2023-04-25T05:35:29;13.63;;;4.07;;
33826;SDS011;20128;45.582;5.298;2023-04-25T05:37:55;9.52;;;3.67;;
33826;SDS011;20128;45.582;5.298;2023-04-25T05:40:21;11.13;;;4.50;;
33826;SDS011;20128;45.582;5.298;2023-04-25T05:42:48;18.02;;;4.90;;
33826;SDS011;20128;45.582;5.298;2023-04-25T05:45:13;19.23;;;4.72;;
33826;SDS011;20128;45.582;5.298;2023-04-25T05:47:39;13.65;;;3.97;;
33826;SDS011;20128;45.582;5.298;2023-04-25T05:50:05;11.38;;;4.43;;
33826;SDS011;20128;45.582;5.298;2023-04-25T05:52:31;18.00;;;4.72;;
33826;SDS011;20128;45.582;5.298;2023-04-25T05:54:57;12.80;;;5.20;;
33826;SDS011;20128;45.582;5.298;2023-04-25T05:57:23;16.95;;;4.75;;
33826;SDS011;20128;45.582;5.298;2023-04-25T05:59:49;15.48;;;5.05;;
33826;SDS011;20128;45.582;5.298;2023-04-25T06:02:15;16.15;;;4.20;;
33826;SDS011;20128;45.582;5.298;2023-04-25T06:04:43;9.80;;;3.45;;
33826;SDS011;20128;45.582;5.298;2023-04-25T06:07:09;10.40;;;3.75;;
33826;SDS011;20128;45.582;5.298;2023-04-25T06:09:34;23.13;;;5.63;;
33826;SDS011;20128;45.582;5.298;2023-04-25T06:12:00;14.05;;;4.10;;
33826;SDS011;20128;45.582;5.298;2023-04-25T06:14:26;18.63;;;5.00;;
33826;SDS011;20128;45.582;5.298;2023-04-25T06:16:53;19.98;;;4.88;;
33826;SDS011;20128;45.582;5.298;2023-04-25T06:19:19;16.83;;;4.50;;
33826;SDS011;20128;45.582;5.298;2023-04-25T06:21:45;11.27;;;4.35;;
33826;SDS011;20128;45.582;5.298;2023-04-25T06:24:10;17.05;;;4.32;;
33826;SDS011;20128;45.582;5.298;2023-04-25T06:26:36;13.77;;;4.18;;
33826;SDS011;20128;45.582;5.298;2023-04-25T06:29:02;15.05;;;3.97;;
33826;SDS011;20128;45.582;5.298;2023-04-25T06:31:27;13.35;;;4.15;;
33826;SDS011;20128;45.582;5.298;2023-04-25T06:33:58;15.30;;;4.00;;
33826;SDS011;20128;45.582;5.298;2023-04-25T06:36:23;12.18;;;4.50;;
33826;SDS011;20128;45.582;5.298;2023-04-25T06:38:52;9.55;;;3.33;;
33826;SDS011;20128;45.582;5.298;2023-04-25T06:41:18;11.30;;;4.28;;
33826;SDS011;20128;45.582;5.298;2023-04-25T06:43:44;11.52;;;4.20;;
33826;SDS011;20128;45.582;5.298;2023-04-25T06:46:09;11.35;;;4.68;;
33826;SDS011;20128;45.582;5.298;2023-04-25T06:48:35;12.77;;;4.15;;
33826;SDS011;20128;45.582;5.298;2023-04-25T06:51:01;18.50;;;5.75;;
33826;SDS011;20128;45.582;5.298;2023-04-25T06:53:27;16.00;;;6.30;;
33826;SDS011;20128;45.582;5.298;2023-04-25T06:55:53;13.13;;;5.38;;
33826;SDS011;20128;45.582;5.298;2023-04-25T06:58:18;11.80;;;4.10;;
33826;SDS011;20128;45.582;5.298;2023-04-25T07:00:44;12.25;;;4.65;;
33826;SDS011;20128;45.582;5.298;2023-04-25T07:03:10;9.48;;;4.80;;
33826;SDS011;20128;45.582;5.298;2023-04-25T07:05:35;10.60;;;5.15;;
33826;SDS011;20128;45.582;5.298;2023-04-25T07:08:01;10.85;;;4.10;;
33826;SDS011;20128;45.582;5.298;2023-04-25T07:10:29;11.93;;;4.18;;
33826;SDS011;20128;45.582;5.298;2023-04-25T07:12:55;26.05;;;7.35;;
33826;SDS011;20128;45.582;5.298;2023-04-25T07:15:20;14.63;;;5.25;;
33826;SDS011;20128;45.582;5.298;2023-04-25T07:17:46;13.90;;;4.95;;
33826;SDS011;20128;45.582;5.298;2023-04-25T07:20:11;14.52;;;4.80;;
33826;SDS011;20128;45.582;5.298;2023-04-25T07:22:37;11.32;;;4.82;;
33826;SDS011;20128;45.582;5.298;2023-04-25T07:25:03;16.88;;;4.35;;
33826;SDS011;20128;45.582;5.298;2023-04-25T07:27:29;10.63;;;4.18;;
33826;SDS011;20128;45.582;5.298;2023-04-25T07:29:55;14.65;;;4.65;;
33826;SDS011;20128;45.582;5.298;2023-04-25T07:32:21;12.13;;;4.45;;
33826;SDS011;20128;45.582;5.298;2023-04-25T07:34:48;18.33;;;4.88;;
33826;SDS011;20128;45.582;5.298;2023-04-25T07:37:14;13.02;;;4.70;;
33826;SDS011;20128;45.582;5.298;2023-04-25T07:39:40;14.38;;;6.05;;
33826;SDS011;20128;45.582;5.298;2023-04-25T07:42:06;14.40;;;5.25;;
33826;SDS011;20128;45.582;5.298;2023-04-25T07:44:35;16.90;;;5.80;;
33826;SDS011;20128;45.582;5.298;2023-04-25T07:47:07;28.70;;;8.05;;
33826;SDS011;20128;45.582;5.298;2023-04-25T07:49:33;14.18;;;5.18;;
33826;SDS011;20128;45.582;5.298;2023-04-25T07:52:00;11.05;;;5.40;;
33826;SDS011;20128;45.582;5.298;2023-04-25T07:54:26;15.02;;;4.63;;
33826;SDS011;20128;45.582;5.298;2023-04-25T07:56:52;11.00;;;4.45;;
33826;SDS011;20128;45.582;5.298;2023-04-25T07:59:17;18.38;;;4.78;;
33826;SDS011;20128;45.582;5.298;2023-04-25T08:01:43;12.80;;;4.22;;
33826;SDS011;20128;45.582;5.298;2023-04-25T08:04:09;15.43;;;4.57;;
33826;SDS011;20128;45.582;5.298;2023-04-25T08:06:35;10.90;;;4.35;;
33826;SDS011;20128;45.582;5.298;2023-04-25T08:09:01;7.78;;;3.95;;
33826;SDS011;20128;45.582;5.298;2023-04-25T08:11:27;16.30;;;4.47;;
33826;SDS011;20128;45.582;5.298;2023-04-25T08:13:53;14.43;;;4.80;;
33826;SDS011;20128;45.582;5.298;2023-04-25T08:16:19;10.63;;;4.57;;
33826;SDS011;20128;45.582;5.298;2023-04-25T08:18:45;11.80;;;4.15;;
33826;SDS011;20128;45.582;5.298;2023-04-25T08:21:11;16.45;;;3.95;;
33826;SDS011;20128;45.582;5.298;2023-04-25T08:23:37;13.63;;;3.95;;
33826;SDS011;20128;45.582;5.298;2023-04-25T08:26:03;14.07;;;4.70;;
33826;SDS011;20128;45.582;5.298;2023-04-25T08:28:30;17.55;;;6.10;;
33826;SDS011;20128;45.582;5.298;2023-04-25T08:30:56;11.93;;;4.07;;
33826;SDS011;20128;45.582;5.298;2023-04-25T08:33:21;10.85;;;4.05;;
33826;SDS011;20128;45.582;5.298;2023-04-25T08:35:47;8.02;;;3.42;;
33826;SDS011;20128;45.582;5.298;2023-04-25T08:38:13;6.90;;;3.05;;
33826;SDS011;20128;45.582;5.298;2023-04-25T08:40:39;14.90;;;3.78;;
33826;SDS011;20128;45.582;5.298;2023-04-25T08:43:08;10.75;;;3.83;;
33826;SDS011;20128;45.582;5.298;2023-04-25T08:45:37;9.77;;;4.80;;
33826;SDS011;20128;45.582;5.298;2023-04-25T08:48:06;14.85;;;4.13;;
33826;SDS011;20128;45.582;5.298;2023-04-25T08:50:36;10.43;;;3.88;;
33826;SDS011;20128;45.582;5.298;2023-04-25T08:53:08;12.32;;;3.90;;
33826;SDS011;20128;45.582;5.298;2023-04-25T08:55:38;16.85;;;3.88;;
33826;SDS011;20128;45.582;5.298;2023-04-25T08:58:07;12.77;;;3.80;;
33826;SDS011;20128;45.582;5.298;2023-04-25T09:00:35;11.30;;;4.47;;
33826;SDS011;20128;45.582;5.298;2023-04-25T09:03:01;8.00;;;3.42;;
33826;SDS011;20128;45.582;5.298;2023-04-25T09:05:27;8.73;;;3.40;;
33826;SDS011;20128;45.582;5.298;2023-04-25T09:07:54;13.35;;;3.35;;
33826;SDS011;20128;45.582;5.298;2023-04-25T09:10:21;7.03;;;3.03;;
33826;SDS011;20128;45.582;5.298;2023-04-25T09:13:08;7.15;;;3.17;;
33826;SDS011;20128;45.582;5.298;2023-04-25T09:15:49;6.45;;;2.90;;
33826;SDS011;20128;45.582;5.298;2023-04-25T09:18:25;8.95;;;2.97;;
33826;SDS011;20128;45.582;5.298;2023-04-25T09:20:52;6.50;;;2.42;;
33826;SDS011;20128;45.582;5.298;2023-04-25T09:23:40;8.93;;;2.55;;
33826;SDS011;20128;45.582;5.298;2023-04-25T09:26:18;7.78;;;2.38;;
33826;SDS011;20128;45.582;5.298;2023-04-25T09:28:45;10.07;;;2.60;;
33826;SDS011;20128;45.582;5.298;2023-04-25T09:31:20;7.03;;;2.33;;
33826;SDS011;20128;45.582;5.298;2023-04-25T09:33:47;6.25;;;2.75;;
33826;SDS011;20128;45.582;5.298;2023-04-25T09:36:13;5.10;;;2.63;;
33826;SDS011;20128;45.582;5.298;2023-04-25T09:38:42;6.65;;;2.35;;
33826;SDS011;20128;45.582;5.298;2023-04-25T09:41:09;10.07;;;1.95;;
33826;SDS011;20128;45.582;5.298;2023-04-25T09:43:35;4.25;;;1.90;;
33826;SDS011;20128;45.582;5.298;2023-04-25T09:46:02;7.55;;;2.60;;
33826;SDS011;20128;45.582;5.298;2023-04-25T09:48:32;4.35;;;2.10;;
33826;SDS011;20128;45.582;5.298;2023-04-25T09:53:39;8.98;;;2.88;;
33826;SDS011;20128;45.582;5.298;2023-04-25T09:56:09;6.90;;;2.13;;
33826;SDS011;20128;45.582;5.298;2023-04-25T09:58:36;5.25;;;2.05;;
33826;SDS011;20128;45.582;5.298;2023-04-25T10:01:03;10.10;;;1.92;;
33826;SDS011;20128;45.582;5.298;2023-04-25T10:03:31;8.40;;;2.30;;
33826;SDS011;20128;45.582;5.298;2023-04-25T10:06:06;5.45;;;2.25;;
33826;SDS011;20128;45.582;5.298;2023-04-25T10:08:34;6.60;;;1.95;;
33826;SDS011;20128;45.582;5.298;2023-04-25T10:11:02;5.07;;;1.65;;
33826;SDS011;20128;45.582;5.298;2023-04-25T10:13:29;5.78;;;2.50;;
33826;SDS011;20128;45.582;5.298;2023-04-25T10:15:59;14.27;;;3.15;;
33826;SDS011;20128;45.582;5.298;2023-04-25T10:18:27;8.45;;;2.70;;
33826;SDS011;20128;45.582;5.298;2023-04-25T10:20:54;9.90;;;3.20;;
33826;SDS011;20128;45.582;5.298;2023-04-25T10:23:21;4.88;;;2.22;;
33826;SDS011;20128;45.582;5.298;2023-04-25T10:25:49;6.53;;;2.50;;
33826;SDS011;20128;45.582;5.298;2023-04-25T10:28:16;8.20;;;2.20;;
33826;SDS011;20128;45.582;5.298;2023-04-25T10:33:41;4.05;;;1.50;;
33826;SDS011;20128;45.582;5.298;2023-04-25T10:36:09;9.43;;;1.83;;
33826;SDS011;20128;45.582;5.298;2023-04-25T10:38:35;5.00;;;1.63;;
33826;SDS011;20128;45.582;5.298;2023-04-25T10:41:02;5.13;;;1.98;;
33826;SDS011;20128;45.582;5.298;2023-04-25T10:43:34;10.50;;;2.00;;
33826;SDS011;20128;45.582;5.298;2023-04-25T10:46:00;3.30;;;1.52;;
33826;SDS011;20128;45.582;5.298;2023-04-25T10:48:27;13.43;;;1.95;;
33826;SDS011;20128;45.582;5.298;2023-04-25T10:51:09;6.82;;;2.10;;
33826;SDS011;20128;45.582;5.298;2023-04-25T10:53:36;5.28;;;1.95;;
33826;SDS011;20128;45.582;5.298;2023-04-25T10:58:46;9.50;;;2.25;;
33826;SDS011;20128;45.582;5.298;2023-04-25T11:01:13;7.80;;;2.40;;
33826;SDS011;20128;45.582;5.298;2023-04-25T11:03:40;9.40;;;2.65;;
33826;SDS011;20128;45.582;5.298;2023-04-25T11:06:12;9.25;;;2.20;;
33826;SDS011;20128;45.582;5.298;2023-04-25T11:08:50;4.60;;;1.80;;
33826;SDS011;20128;45.582;5.298;2023-04-25T11:11:19;6.95;;;1.90;;
33826;SDS011;20128;45.582;5.298;2023-04-25T11:13:48;7.47;;;2.42;;
33826;SDS011;20128;45.582;5.298;2023-04-25T11:16:15;6.45;;;1.35;;
33826;SDS011;20128;45.582;5.298;2023-04-25T11:18:42;6.70;;;1.73;;
33826;SDS011;20128;45.582;5.298;2023-04-25T11:21:08;3.83;;;1.73;;
33826;SDS011;20128;45.582;5.298;2023-04-25T11:23:34;7.00;;;1.60;;
33826;SDS011;20128;45.582;5.298;2023-04-25T11:26:00;7.40;;;2.05;;
33826;SDS011;20128;45.582;5.298;2023-04-25T11:28:28;9.23;;;1.98;;
33826;SDS011;20128;45.582;5.298;2023-04-25T11:30:54;5.22;;;1.92;;
33826;SDS011;20128;45.582;5.298;2023-04-25T11:33:23;10.02;;;1.60;;
33826;SDS011;20128;45.582;5.298;2023-04-25T11:35:50;5.97;;;2.33;;
33826;SDS011;20128;45.582;5.298;2023-04-25T11:38:17;5.18;;;2.10;;
33826;SDS011;20128;45.582;5.298;2023-04-25T11:40:43;4.72;;;1.90;;
33826;SDS011;20128;45.582;5.298;2023-04-25T11:43:09;4.80;;;1.63;;
33826;SDS011;20128;45.582;5.298;2023-04-25T11:45:36;7.20;;;1.70;;
33826;SDS011;20128;45.582;5.298;2023-04-25T11:48:02;7.15;;;1.73;;
33826;SDS011;20128;45.582;5.298;2023-04-25T11:50:28;3.72;;;1.20;;
33826;SDS011;20128;45.582;5.298;2023-04-25T11:52:55;4.32;;;1.30;;
33826;SDS011;20128;45.582;5.298;2023-04-25T11:55:21;7.05;;;1.45;;
33826;SDS011;20128;45.582;5.298;2023-04-25T11:57:48;9.35;;;2.00;;
33826;SDS011;20128;45.582;5.298;2023-04-25T12:00:16;9.63;;;1.90;;
33826;SDS011;20128;45.582;5.298;2023-04-25T12:02:52;6.28;;;1.73;;
33826;SDS011;20128;45.582;5.298;2023-04-25T12:05:19;5.63;;;1.50;;
33826;SDS011;20128;45.582;5.298;2023-04-25T12:07:45;8.52;;;1.52;;
33826;SDS011;20128;45.582;5.298;2023-04-25T12:10:12;5.32;;;1.17;;
33826;SDS011;20128;45.582;5.298;2023-04-25T12:12:43;3.72;;;1.42;;
33826;SDS011;20128;45.582;5.298;2023-04-25T12:15:25;6.30;;;1.63;;
33826;SDS011;20128;45.582;5.298;2023-04-25T12:17:52;6.82;;;1.48;;
33826;SDS011;20128;45.582;5.298;2023-04-25T12:20:19;6.25;;;1.55;;
33826;SDS011;20128;45.582;5.298;2023-04-25T12:22:48;4.53;;;1.90;;
33826;SDS011;20128;45.582;5.298;2023-04-25T12:28:22;3.78;;;1.42;;
33826;SDS011;20128;45.582;5.298;2023-04-25T12:33:29;6.43;;;1.92;;
33826;SDS011;20128;45.582;5.298;2023-04-25T12:35:56;6.88;;;1.92;;
33826;SDS011;20128;45.582;5.298;2023-04-25T12:40:55;3.38;;;1.35;;
33826;SDS011;20128;45.582;5.298;2023-04-25T12:43:21;3.58;;;1.40;;
33826;SDS011;20128;45.582;5.298;2023-04-25T12:45:48;8.32;;;1.75;;
33826;SDS011;20128;45.582;5.298;2023-04-25T12:48:15;5.30;;;1.92;;
33826;SDS011;20128;45.582;5.298;2023-04-25T12:50:40;5.20;;;2.33;;
33826;SDS011;20128;45.582;5.298;2023-04-25T12:53:07;6.88;;;2.00;;
33826;SDS011;20128;45.582;5.298;2023-04-25T12:55:33;7.55;;;1.88;;
33826;SDS011;20128;45.582;5.298;2023-04-25T12:57:58;7.35;;;1.90;;
33826;SDS011;20128;45.582;5.298;2023-04-25T13:00:24;6.25;;;1.65;;
33826;SDS011;20128;45.582;5.298;2023-04-25T13:02:51;9.00;;;1.77;;
33826;SDS011;20128;45.582;5.298;2023-04-25T13:05:17;6.35;;;1.77;;
33826;SDS011;20128;45.582;5.298;2023-04-25T13:07:42;7.40;;;1.92;;
33826;SDS011;20128;45.582;5.298;2023-04-25T13:10:08;7.32;;;1.48;;
33826;SDS011;20128;45.582;5.298;2023-04-25T13:12:34;5.88;;;1.48;;
33826;SDS011;20128;45.582;5.298;2023-04-25T13:15:00;6.28;;;1.63;;
33826;SDS011;20128;45.582;5.298;2023-04-25T13:17:25;5.57;;;1.27;;
33826;SDS011;20128;45.582;5.298;2023-04-25T13:19:51;3.45;;;1.40;;
33826;SDS011;20128;45.582;5.298;2023-04-25T13:22:16;4.55;;;1.67;;
33826;SDS011;20128;45.582;5.298;2023-04-25T13:24:45;4.25;;;1.45;;
33826;SDS011;20128;45.582;5.298;2023-04-25T13:27:10;5.78;;;1.75;;
33826;SDS011;20128;45.582;5.298;2023-04-25T13:29:36;4.38;;;1.73;;
33826;SDS011;20128;45.582;5.298;2023-04-25T13:32:03;5.15;;;1.90;;
33826;SDS011;20128;45.582;5.298;2023-04-25T13:34:30;7.85;;;2.00;;
33826;SDS011;20128;45.582;5.298;2023-04-25T13:36:55;6.07;;;1.50;;
33826;SDS011;20128;45.582;5.298;2023-04-25T13:39:21;11.63;;;1.60;;
33826;SDS011;20128;45.582;5.298;2023-04-25T13:41:47;5.68;;;2.00;;
33826;SDS011;20128;45.582;5.298;2023-04-25T13:44:13;4.45;;;1.80;;
33826;SDS011;20128;45.582;5.298;2023-04-25T13:46:39;3.38;;;1.20;;
33826;SDS011;20128;45.582;5.298;2023-04-25T13:49:05;7.20;;;2.00;;
33826;SDS011;20128;45.582;5.298;2023-04-25T13:51:30;5.07;;;1.63;;
33826;SDS011;20128;45.582;5.298;2023-04-25T13:53:56;4.57;;;1.67;;
33826;SDS011;20128;45.582;5.298;2023-04-25T13:56:22;4.28;;;1.50;;
33826;SDS011;20128;45.582;5.298;2023-04-25T13:58:49;6.10;;;1.60;;
33826;SDS011;20128;45.582;5.298;2023-04-25T14:01:16;5.63;;;1.90;;
33826;SDS011;20128;45.582;5.298;2023-04-25T14:03:42;10.65;;;1.75;;
33826;SDS011;20128;45.582;5.298;2023-04-25T14:06:08;6.30;;;1.92;;
33826;SDS011;20128;45.582;5.298;2023-04-25T14:08:34;6.65;;;1.50;;
33826;SDS011;20128;45.582;5.298;2023-04-25T14:11:00;5.28;;;1.52;;
33826;SDS011;20128;45.582;5.298;2023-04-25T14:13:26;5.15;;;1.13;;
33826;SDS011;20128;45.582;5.298;2023-04-25T14:15:51;4.13;;;1.70;;
33826;SDS011;20128;45.582;5.298;2023-04-25T14:18:17;3.30;;;1.20;;
33826;SDS011;20128;45.582;5.298;2023-04-25T14:20:44;5.65;;;1.63;;
33826;SDS011;20128;45.582;5.298;2023-04-25T14:23:10;3.75;;;1.70;;
33826;SDS011;20128;45.582;5.298;2023-04-25T14:25:36;4.55;;;1.80;;
33826;SDS011;20128;45.582;5.298;2023-04-25T14:28:02;5.88;;;2.10;;
33826;SDS011;20128;45.582;5.298;2023-04-25T14:30:28;4.00;;;0.95;;
33826;SDS011;20128;45.582;5.298;2023-04-25T14:32:54;3.53;;;1.05;;
33826;SDS011;20128;45.582;5.298;2023-04-25T14:35:20;2.85;;;1.08;;
33826;SDS011;20128;45.582;5.298;2023-04-25T14:37:46;4.90;;;1.42;;
33826;SDS011;20128;45.582;5.298;2023-04-25T14:40:12;2.60;;;1.27;;
33826;SDS011;20128;45.582;5.298;2023-04-25T14:42:40;4.32;;;1.55;;
33826;SDS011;20128;45.582;5.298;2023-04-25T14:45:06;7.82;;;1.33;;
33826;SDS011;20128;45.582;5.298;2023-04-25T14:47:33;3.47;;;1.23;;
33826;SDS011;20128;45.582;5.298;2023-04-25T14:50:02;4.90;;;1.65;;
33826;SDS011;20128;45.582;5.298;2023-04-25T14:52:29;4.57;;;1.50;;
33826;SDS011;20128;45.582;5.298;2023-04-25T14:54:56;5.55;;;1.52;;